Time;durP1;ratioP1;P1;durP2;ratioP2;P2;SDS_P1;SDS_P2;PMS_P1;PMS_P2;Temp;Humidity;BMP_temperature;BMP_pressure;BME280_temperature;BME280_humidity;BME280_pressure;Samples;Min_cycle;Max_cycle;Signal;HPM_P1;HPM_P2
2023/03/08 00:01:09;;;;;;;8.65;3.65;;;14.20;85.70;;;;;;5096989;23;20382;-75
2023/03/08 00:03:35;;;;;;;14.75;5.03;;;14.20;85.70;;;;;;5052212;28;20116;-76
2023/03/08 00:06:05;;;;;;;13.38;3.97;;;14.20;86.00;;;;;;5052197;28;20175;-76
2023/03/08 00:08:31;;;;;;;14.73;4.40;;;14.20;86.20;;;;;;5052037;28;20033;-76
2023/03/08 00:10:56;;;;;;;13.25;4.50;;;14.20;86.40;;;;;;5052126;28;20040;-76
2023/03/08 00:13:22;;;;;;;13.02;4.88;;;14.20;86.80;;;;;;5052274;28;20556;-76
2023/03/08 00:15:48;;;;;;;15.93;4.57;;;14.20;86.90;;;;;;5034229;28;20037;-77
2023/03/08 00:18:13;;;;;;;14.88;4.53;;;14.20;87.30;;;;;;5051835;28;20033;-77
2023/03/08 00:20:39;;;;;;;11.85;4.38;;;14.20;87.70;;;;;;5051978;28;20044;-75
2023/03/08 00:23:07;;;;;;;16.13;4.50;;;14.10;88.10;;;;;;5051953;28;20064;-77
2023/03/08 00:25:32;;;;;;;15.02;4.70;;;14.10;88.20;;;;;;5052224;28;20092;-76
2023/03/08 00:27:58;;;;;;;15.30;5.25;;;14.10;88.40;;;;;;5052058;28;20033;-75
2023/03/08 00:30:24;;;;;;;15.75;4.82;;;14.10;88.60;;;;;;5052389;28;20057;-75
2023/03/08 00:32:49;;;;;;;14.57;4.20;;;14.10;88.60;;;;;;5053364;28;20044;-76
2023/03/08 00:35:15;;;;;;;15.32;5.00;;;14.20;88.70;;;;;;5052650;28;20491;-75
2023/03/08 00:37:41;;;;;;;12.73;4.65;;;14.20;88.80;;;;;;5051913;28;20139;-76
2023/03/08 00:40:08;;;;;;;12.57;4.28;;;14.20;89.00;;;;;;5054015;28;20075;-75
2023/03/08 00:42:34;;;;;;;14.32;4.45;;;14.20;88.70;;;;;;5037896;28;20064;-75
2023/03/08 00:45:00;;;;;;;12.07;4.32;;;14.20;89.00;;;;;;5055569;28;20139;-75
2023/03/08 00:47:25;;;;;;;17.05;4.40;;;14.20;89.00;;;;;;5055768;28;20437;-74
2023/03/08 00:49:51;;;;;;;13.93;4.10;;;14.20;89.00;;;;;;5055682;28;20067;-76
2023/03/08 00:52:17;;;;;;;17.00;4.97;;;14.20;89.30;;;;;;5055593;28;20057;-76
2023/03/08 00:54:42;;;;;;;16.52;5.03;;;14.20;89.50;;;;;;5055563;28;20041;-76
2023/03/08 00:57:08;;;;;;;12.98;4.75;;;14.20;89.40;;;;;;5055604;28;20519;-76
2023/03/08 00:59:34;;;;;;;17.63;4.63;;;14.30;89.50;;;;;;5055425;28;20045;-75
2023/03/08 01:02:00;;;;;;;18.20;4.60;;;14.20;89.40;;;;;;5054895;28;20148;-77
2023/03/08 01:04:25;;;;;;;16.77;4.85;;;14.20;89.50;;;;;;5055264;28;20071;-75
2023/03/08 01:06:51;;;;;;;17.30;4.50;;;14.20;89.80;;;;;;5055554;28;20408;-75
2023/03/08 01:09:17;;;;;;;14.63;4.28;;;14.30;89.90;;;;;;5055294;28;20021;-77
2023/03/08 01:11:43;;;;;;;14.98;4.80;;;14.20;90.00;;;;;;5055113;28;20475;-75
2023/03/08 01:14:09;;;;;;;20.98;4.57;;;14.20;90.00;;;;;;5054970;28;20037;-76
2023/03/08 01:16:35;;;;;;;21.27;4.50;;;14.20;90.20;;;;;;5055044;28;20147;-76
2023/03/08 01:19:01;;;;;;;14.70;4.63;;;14.10;90.20;;;;;;5055151;28;20108;-75
2023/03/08 01:21:28;;;;;;;14.82;4.53;;;14.10;90.30;;;;;;5055440;28;20041;-74
2023/03/08 01:23:54;;;;;;;18.15;4.55;;;14.10;90.40;;;;;;5057872;28;20025;-76
2023/03/08 01:26:23;;;;;;;13.27;4.05;;;14.10;90.40;;;;;;5054832;28;20060;-76
2023/03/08 01:28:49;;;;;;;16.27;4.88;;;14.10;90.50;;;;;;5054425;28;20060;-75
2023/03/08 01:31:27;;;;;;;16.45;4.60;;;14.10;90.50;;;;;;5054515;28;20068;-75
2023/03/08 01:33:53;;;;;;;19.63;5.15;;;14.10;90.80;;;;;;5054817;28;20493;-74
2023/03/08 01:36:21;;;;;;;15.20;4.15;;;14.10;90.60;;;;;;5054654;28;20039;-76
2023/03/08 01:38:48;;;;;;;16.83;4.75;;;14.10;90.70;;;;;;5054629;28;20033;-76
2023/03/08 01:41:25;;;;;;;17.80;4.63;;;14.20;90.80;;;;;;5036506;28;20152;-76
2023/03/08 01:43:52;;;;;;;19.58;5.32;;;14.20;90.80;;;;;;5054520;28;20029;-76
2023/03/08 01:46:29;;;;;;;24.83;5.13;;;14.20;90.70;;;;;;5054495;28;20091;-75
2023/03/08 01:49:21;;;;;;;20.20;5.07;;;14.20;90.60;;;;;;5054546;28;20025;-75
2023/03/08 01:52:01;;;;;;;14.50;4.15;;;14.20;90.90;;;;;;5044814;28;20489;-75
2023/03/08 01:54:42;;;;;;;19.58;5.07;;;14.20;90.60;;;;;;5054354;28;20424;-75
2023/03/08 01:57:20;;;;;;;24.08;4.78;;;14.20;90.90;;;;;;5054893;28;20152;-75
2023/03/08 01:59:48;;;;;;;18.83;5.25;;;14.20;90.80;;;;;;5054648;28;20037;-75
2023/03/08 02:02:16;;;;;;;23.23;4.35;;;14.20;91.00;;;;;;5054066;28;20508;-74
2023/03/08 02:04:43;;;;;;;18.65;4.47;;;14.20;91.10;;;;;;5054198;28;20065;-77
2023/03/08 02:07:09;;;;;;;15.63;4.40;;;14.20;91.10;;;;;;5036878;28;20033;-75
2023/03/08 02:09:34;;;;;;;16.52;4.63;;;14.20;91.10;;;;;;5054563;28;20513;-76
2023/03/08 02:12:05;;;;;;;23.88;5.15;;;14.20;91.20;;;;;;5054757;28;20400;-76
2023/03/08 02:14:30;;;;;;;17.40;4.60;;;14.20;91.20;;;;;;5036118;28;20435;-74
2023/03/08 02:16:56;;;;;;;19.80;5.10;;;14.20;91.30;;;;;;5052149;28;20041;-75
2023/03/08 02:19:40;;;;;;;18.48;4.28;;;14.20;91.30;;;;;;5053489;28;20108;-76
2023/03/08 02:22:07;;;;;;;;;;;14.20;91.30;;;;;;5054226;28;20123;-74
2023/03/08 02:24:32;;;;;;;15.50;4.18;;;14.20;91.50;;;;;;5053706;28;20427;-75
2023/03/08 02:27:05;;;;;;;13.75;4.13;;;14.20;91.20;;;;;;5053623;28;20116;-75
2023/03/08 02:29:31;;;;;;;17.95;4.50;;;14.20;91.30;;;;;;5053360;28;20036;-75
2023/03/08 02:31:57;;;;;;;22.83;5.22;;;14.30;91.30;;;;;;5053648;28;20029;-75
2023/03/08 02:34:23;;;;;;;20.27;5.40;;;14.20;91.30;;;;;;5054293;28;20036;-76
2023/03/08 02:36:48;;;;;;;18.90;5.63;;;14.20;91.40;;;;;;5054082;28;20036;-75
2023/03/08 02:39:14;;;;;;;14.55;3.95;;;14.30;91.40;;;;;;5053778;28;20524;-75
2023/03/08 02:41:40;;;;;;;19.88;4.05;;;14.30;91.40;;;;;;5053191;28;20044;-75
2023/03/08 02:44:05;;;;;;;22.48;4.38;;;14.30;91.40;;;;;;5053391;28;20156;-75
2023/03/08 02:46:31;;;;;;;23.33;4.35;;;14.30;91.40;;;;;;5053555;28;20108;-75
2023/03/08 02:48:57;;;;;;;18.35;5.10;;;14.30;91.50;;;;;;5053418;28;20029;-75
2023/03/08 02:51:23;;;;;;;15.63;3.80;;;14.30;91.50;;;;;;5053275;28;20033;-76
2023/03/08 02:53:48;;;;;;;18.55;4.80;;;14.30;91.50;;;;;;5053275;28;20021;-75
2023/03/08 02:56:14;;;;;;;21.33;4.78;;;14.30;91.50;;;;;;5053800;28;20105;-74
2023/03/08 02:58:40;;;;;;;13.60;4.15;;;14.30;91.50;;;;;;5055531;28;20029;-74
2023/03/08 03:01:13;;;;;;;22.92;5.00;;;14.30;91.50;;;;;;5053149;28;20056;-76
2023/03/08 03:03:40;;;;;;;14.48;3.83;;;14.40;91.60;;;;;;5052322;28;20029;-74
2023/03/08 03:06:17;;;;;;;16.27;4.97;;;14.30;91.50;;;;;;5052950;28;20590;-74
2023/03/08 03:08:43;;;;;;;11.55;3.95;;;14.30;91.50;;;;;;5052581;28;20040;-76
2023/03/08 03:11:18;;;;;;;23.35;5.00;;;14.30;91.50;;;;;;5052567;28;20069;-75
2023/03/08 03:13:44;;;;;;;16.85;4.60;;;14.30;91.40;;;;;;5052651;28;20408;-75
2023/03/08 03:16:14;;;;;;;16.58;4.13;;;14.30;91.50;;;;;;5052605;28;20108;-75
2023/03/08 03:18:41;;;;;;;13.77;3.80;;;14.30;91.50;;;;;;5052573;28;20029;-76
2023/03/08 03:21:10;;;;;;;18.90;3.92;;;14.30;91.40;;;;;;5052427;28;20557;-75
2023/03/08 03:23:36;;;;;;;18.98;4.75;;;14.40;91.50;;;;;;5052264;28;20180;-74
2023/03/08 03:26:10;;;;;;;13.82;3.88;;;14.30;91.50;;;;;;5052742;28;20040;-75
2023/03/08 03:28:36;;;;;;;18.02;3.90;;;14.30;91.40;;;;;;5052399;28;20025;-76
2023/03/08 03:31:07;;;;;;;17.15;4.63;;;14.30;91.40;;;;;;5052317;28;20033;-76
2023/03/08 03:33:32;;;;;;;21.02;4.75;;;14.30;91.40;;;;;;5052920;28;20465;-76
2023/03/08 03:35:58;;;;;;;16.55;4.15;;;14.40;91.40;;;;;;5052532;28;20033;-76
2023/03/08 03:38:24;;;;;;;14.25;4.90;;;14.30;91.30;;;;;;5052513;28;20037;-75
2023/03/08 03:40:49;;;;;;;18.58;4.25;;;14.40;91.30;;;;;;5052523;28;20389;-75
2023/03/08 03:43:15;;;;;;;17.40;4.15;;;14.30;91.30;;;;;;5052535;28;20206;-75
2023/03/08 03:45:41;;;;;;;19.35;3.80;;;14.30;91.30;;;;;;5052595;28;20025;-76
2023/03/08 03:48:07;;;;;;;16.55;3.60;;;14.30;91.20;;;;;;5034606;28;20037;-76
2023/03/08 03:50:32;;;;;;;18.33;4.57;;;14.40;91.20;;;;;;5052395;28;20555;-74
2023/03/08 03:52:58;;;;;;;16.58;4.10;;;14.40;91.20;;;;;;5052133;28;20505;-75
2023/03/08 03:55:24;;;;;;;14.63;4.07;;;14.40;91.10;;;;;;5052269;28;20037;-74
2023/03/08 03:57:49;;;;;;;16.23;6.00;;;14.30;91.10;;;;;;5052332;28;20025;-74
2023/03/08 04:00:16;;;;;;;16.05;3.80;;;14.30;91.10;;;;;;5052415;28;20519;-76
2023/03/08 04:02:41;;;;;;;13.77;3.88;;;14.30;91.00;;;;;;5051889;28;20064;-74
2023/03/08 04:05:07;;;;;;;12.60;3.80;;;14.30;91.10;;;;;;5033160;28;20076;-75
2023/03/08 04:07:33;;;;;;;22.00;5.55;;;14.30;91.00;;;;;;5033596;28;20037;-74
2023/03/08 04:09:59;;;;;;;19.27;3.90;;;14.40;91.00;;;;;;5051264;28;20033;-74
2023/03/08 04:12:24;;;;;;;13.93;3.78;;;14.40;91.00;;;;;;5051955;28;20045;-74
2023/03/08 04:14:52;;;;;;;15.70;3.70;;;14.40;91.00;;;;;;5055363;28;20033;-75
2023/03/08 04:17:18;;;;;;;16.92;3.95;;;14.40;90.90;;;;;;5037880;28;20033;-75
2023/03/08 04:19:43;;;;;;;20.60;4.15;;;14.40;90.90;;;;;;5056023;28;20044;-74
2023/03/08 04:22:09;;;;;;;13.45;3.70;;;14.40;90.90;;;;;;5055813;28;20067;-76
2023/03/08 04:24:35;;;;;;;22.23;5.03;;;14.40;90.90;;;;;;5055306;28;20027;-75
2023/03/08 04:27:00;;;;;;;14.90;3.70;;;14.40;91.00;;;;;;5055198;28;20064;-76
2023/03/08 04:29:26;;;;;;;14.73;4.28;;;14.40;90.80;;;;;;5055920;28;20108;-75
2023/03/08 04:31:54;;;;;;;14.98;3.63;;;14.40;90.90;;;;;;5056362;28;20132;-74
2023/03/08 04:34:20;;;;;;;12.90;3.45;;;14.40;91.00;;;;;;5056529;28;20033;-75
2023/03/08 04:36:45;;;;;;;15.93;3.72;;;14.40;90.80;;;;;;5038137;28;20048;-74
2023/03/08 04:39:11;;;;;;;16.25;3.80;;;14.40;90.80;;;;;;5057550;28;20035;-76
2023/03/08 04:41:37;;;;;;;14.93;3.65;;;14.50;90.70;;;;;;5055802;28;20045;-76
2023/03/08 04:44:02;;;;;;;13.85;3.88;;;14.40;90.70;;;;;;5055802;28;20032;-75
2023/03/08 04:46:28;;;;;;;17.80;5.82;;;14.40;90.80;;;;;;5055601;28;20102;-75
2023/03/08 04:48:54;;;;;;;16.33;3.92;;;14.40;90.80;;;;;;5055431;28;20041;-75
2023/03/08 04:51:24;;;;;;;16.23;3.95;;;14.40;90.80;;;;;;5055373;28;20037;-76
2023/03/08 04:53:50;;;;;;;16.13;4.55;;;14.40;90.90;;;;;;5055585;28;20025;-76
2023/03/08 04:56:16;;;;;;;16.77;4.18;;;14.40;90.70;;;;;;5037493;28;20155;-76
2023/03/08 04:58:43;;;;;;;16.13;4.43;;;14.40;90.80;;;;;;5055169;28;20485;-75
2023/03/08 05:01:14;;;;;;;17.25;5.10;;;14.40;90.60;;;;;;5054918;28;20053;-76
2023/03/08 05:03:40;;;;;;;13.98;3.38;;;14.40;90.70;;;;;;5055136;28;20041;-74
2023/03/08 05:06:06;;;;;;;11.82;3.60;;;14.40;90.80;;;;;;5054681;28;20396;-75
2023/03/08 05:08:32;;;;;;;13.82;4.40;;;14.40;90.70;;;;;;5037145;28;20037;-75
2023/03/08 05:10:59;;;;;;;16.52;4.25;;;14.50;90.70;;;;;;5055147;28;20037;-74
2023/03/08 05:13:31;;;;;;;17.17;4.30;;;14.50;90.80;;;;;;5054923;28;20508;-74
2023/03/08 05:15:57;;;;;;;10.18;4.63;;;14.50;90.80;;;;;;5055031;28;20048;-76
2023/03/08 05:18:23;;;;;;;12.48;3.70;;;14.50;90.70;;;;;;5054869;28;20111;-75
2023/03/08 05:20:56;;;;;;;16.63;3.58;;;14.50;90.80;;;;;;5055116;28;20075;-74
2023/03/08 05:23:23;;;;;;;16.33;4.38;;;14.40;90.80;;;;;;5055473;28;20493;-75
2023/03/08 05:25:57;;;;;;;12.65;3.90;;;14.40;90.80;;;;;;5054403;28;20150;-77
2023/03/08 05:28:24;;;;;;;11.38;3.92;;;14.40;90.80;;;;;;5055428;28;20037;-75
2023/03/08 05:31:00;;;;;;;18.15;4.18;;;14.40;90.90;;;;;;5055375;28;20040;-75
2023/03/08 05:33:25;;;;;;;13.65;3.28;;;14.50;90.90;;;;;;5054676;28;20151;-75
2023/03/08 05:35:53;;;;;;;15.38;3.80;;;14.50;90.90;;;;;;5036327;28;20123;-76
2023/03/08 05:38:20;;;;;;;18.38;4.57;;;14.40;90.80;;;;;;5054433;28;20021;-75
2023/03/08 05:40:46;;;;;;;16.45;3.70;;;14.40;90.90;;;;;;5054330;28;20068;-75
2023/03/08 05:43:11;;;;;;;14.98;4.05;;;14.50;91.00;;;;;;5054390;28;20029;-76
2023/03/08 05:45:37;;;;;;;17.77;4.18;;;14.50;91.10;;;;;;5054610;28;20465;-77
2023/03/08 05:48:03;;;;;;;17.30;3.33;;;14.40;91.00;;;;;;5053746;28;20440;-76
2023/03/08 05:50:29;;;;;;;17.10;3.95;;;14.40;91.00;;;;;;5054140;28;20396;-76
2023/03/08 05:52:54;;;;;;;19.25;3.90;;;14.40;91.00;;;;;;5054355;28;20029;-75
2023/03/08 05:55:20;;;;;;;15.68;3.70;;;14.40;91.00;;;;;;5054411;28;20037;-75
2023/03/08 05:57:46;;;;;;;15.95;5.05;;;14.40;91.00;;;;;;5053795;28;20039;-75
2023/03/08 06:00:12;;;;;;;19.77;5.45;;;14.40;91.10;;;;;;5054108;28;20060;-75
2023/03/08 06:02:38;;;;;;;14.80;4.35;;;14.50;91.10;;;;;;5053654;28;20045;-75
2023/03/08 06:05:04;;;;;;;16.27;4.72;;;14.50;91.10;;;;;;5054323;28;20044;-76
2023/03/08 06:07:29;;;;;;;15.32;4.63;;;14.50;91.00;;;;;;5054647;28;20346;-74
2023/03/08 06:09:55;;;;;;;21.60;4.55;;;14.50;91.10;;;;;;5054554;28;20029;-76
2023/03/08 06:12:21;;;;;;;17.13;5.05;;;14.60;91.10;;;;;;5053595;28;20071;-74
2023/03/08 06:14:47;;;;;;;10.82;3.72;;;14.60;91.00;;;;;;5053153;28;20481;-75
2023/03/08 06:17:13;;;;;;;17.23;3.97;;;14.60;91.10;;;;;;5053181;28;20072;-75
2023/03/08 06:19:38;;;;;;;14.80;4.20;;;14.60;91.00;;;;;;5053390;28;20036;-75
2023/03/08 06:22:04;;;;;;;17.30;3.90;;;14.70;91.00;;;;;;5053644;28;20060;-75
2023/03/08 06:24:30;;;;;;;14.25;4.10;;;14.70;90.90;;;;;;5054759;28;20037;-76
2023/03/08 06:26:56;;;;;;;12.50;3.63;;;14.80;90.80;;;;;;5057725;28;20488;-76
2023/03/08 06:29:22;;;;;;;15.82;3.90;;;14.80;90.80;;;;;;5053503;28;20354;-75
2023/03/08 06:31:47;;;;;;;19.08;4.30;;;14.80;90.80;;;;;;5058934;28;20033;-79
2023/03/08 06:34:13;;;;;;;13.25;3.75;;;14.90;90.70;;;;;;5056599;28;20095;-74
2023/03/08 06:36:39;;;;;;;13.98;3.70;;;14.90;90.70;;;;;;5059880;28;20040;-75
2023/03/08 06:39:05;;;;;;;17.30;4.13;;;15.00;90.70;;;;;;5073846;28;20507;-74
2023/03/08 06:41:32;;;;;;;10.85;3.42;;;15.00;90.60;;;;;;5073315;28;20091;-74
2023/03/08 06:43:57;;;;;;;11.45;3.45;;;15.00;90.60;;;;;;5073757;28;20519;-76
2023/03/08 06:46:23;;;;;;;19.35;4.03;;;15.10;90.60;;;;;;5073881;28;20060;-75
2023/03/08 06:48:49;;;;;;;16.05;3.90;;;15.10;90.60;;;;;;5052837;28;20036;-75
2023/03/08 06:51:17;;;;;;;16.67;3.40;;;15.10;90.50;;;;;;5053466;28;20044;-75
2023/03/08 06:53:42;;;;;;;17.85;3.90;;;15.10;90.50;;;;;;5053561;28;20159;-75
2023/03/08 06:56:10;;;;;;;12.27;3.42;;;15.10;90.40;;;;;;5053556;28;20041;-75
2023/03/08 06:58:37;;;;;;;13.68;4.03;;;15.10;90.50;;;;;;5036825;28;20123;-74
2023/03/08 07:01:04;;;;;;;15.50;4.75;;;15.10;90.40;;;;;;5053308;28;20041;-74
2023/03/08 07:03:30;;;;;;;12.20;4.00;;;15.20;90.40;;;;;;5053429;28;20442;-74
2023/03/08 07:06:09;;;;;;;16.88;3.85;;;15.20;90.30;;;;;;5053407;28;20052;-75
2023/03/08 07:08:35;;;;;;;10.80;3.35;;;15.30;90.30;;;;;;5061944;28;20522;-73
2023/03/08 07:11:01;;;;;;;16.77;3.70;;;15.30;90.20;;;;;;5053318;28;20048;-73
2023/03/08 07:13:28;;;;;;;13.48;3.78;;;15.40;90.10;;;;;;5053126;28;20032;-72
2023/03/08 07:15:54;;;;;;;19.00;4.53;;;15.40;90.10;;;;;;5052965;28;20033;-74
2023/03/08 07:18:20;;;;;;;13.57;3.95;;;15.40;90.00;;;;;;5053552;28;20049;-75
2023/03/08 07:20:59;;;;;;;12.52;4.03;;;15.40;90.00;;;;;;5054111;28;20040;-75
2023/03/08 07:23:25;;;;;;;17.58;4.05;;;15.50;90.00;;;;;;5061438;28;20492;-75
2023/03/08 07:25:50;;;;;;;14.77;4.28;;;15.50;89.90;;;;;;5063428;28;20028;-76
2023/03/08 07:28:16;;;;;;;19.23;3.50;;;15.50;90.00;;;;;;5068407;28;20047;-76
2023/03/08 07:30:47;;;;;;;16.70;4.65;;;15.50;90.00;;;;;;5062396;28;20033;-76
2023/03/08 07:33:13;;;;;;;20.27;4.20;;;15.60;89.90;;;;;;5053670;28;20032;-75
2023/03/08 07:35:39;;;;;;;11.07;3.83;;;15.60;89.80;;;;;;5053575;28;20334;-75
2023/03/08 07:38:04;;;;;;;15.02;4.05;;;15.70;89.90;;;;;;5053965;28;20132;-76
2023/03/08 07:40:30;;;;;;;15.13;3.97;;;15.70;89.80;;;;;;5054353;28;20033;-75
2023/03/08 07:42:56;;;;;;;15.25;4.00;;;15.80;89.60;;;;;;5060485;28;20048;-75
2023/03/08 07:45:22;;;;;;;17.40;3.67;;;15.80;89.50;;;;;;5065561;28;20032;-75
2023/03/08 07:47:51;;;;;;;15.25;4.07;;;15.80;89.40;;;;;;5066579;28;20043;-75
2023/03/08 07:50:18;;;;;;;14.73;4.00;;;15.90;89.50;;;;;;5063983;28;20078;-76
2023/03/08 07:52:43;;;;;;;14.43;4.03;;;16.00;89.40;;;;;;5072360;28;20043;-77
2023/03/08 07:55:10;;;;;;;16.83;4.82;;;16.00;89.00;;;;;;5068893;28;20033;-75
2023/03/08 07:57:36;;;;;;;18.63;4.32;;;16.10;88.70;;;;;;5067216;28;20086;-75
2023/03/08 08:00:06;;;;;;;15.52;4.35;;;16.20;88.60;;;;;;5072598;28;20033;-74
2023/03/08 08:02:33;;;;;;;15.20;4.13;;;16.20;88.40;;;;;;5072469;28;20075;-74
2023/03/08 08:04:59;;;;;;;16.48;4.03;;;16.20;88.20;;;;;;5072403;28;20060;-74
2023/03/08 08:07:24;;;;;;;18.48;4.53;;;16.30;88.00;;;;;;5072442;28;20040;-77
2023/03/08 08:09:50;;;;;;;16.88;3.50;;;16.40;87.90;;;;;;5072513;28;20103;-75
2023/03/08 08:12:16;;;;;;;18.83;4.05;;;16.40;87.40;;;;;;5072344;28;20048;-76
2023/03/08 08:14:42;;;;;;;16.80;4.35;;;16.50;87.10;;;;;;5072155;28;20029;-75
2023/03/08 08:17:08;;;;;;;15.10;3.67;;;16.50;86.90;;;;;;5072115;28;20033;-72
2023/03/08 08:19:33;;;;;;;16.42;4.15;;;16.60;86.80;;;;;;5072569;28;20074;-74
2023/03/08 08:21:59;;;;;;;15.90;4.00;;;16.70;86.60;;;;;;5072021;28;20484;-74
2023/03/08 08:24:26;;;;;;;12.18;3.70;;;16.70;86.40;;;;;;5072554;28;20040;-75
2023/03/08 08:26:52;;;;;;;18.40;5.03;;;16.80;86.70;;;;;;5072646;28;20040;-75
2023/03/08 08:29:17;;;;;;;21.27;4.78;;;16.80;86.80;;;;;;5073980;28;20031;-75
2023/03/08 08:31:43;;;;;;;28.17;5.25;;;16.80;86.20;;;;;;5073188;28;20072;-75
2023/03/08 08:34:09;;;;;;;22.38;4.35;;;16.70;86.20;;;;;;5072753;28;20036;-74
2023/03/08 08:36:35;;;;;;;18.88;4.13;;;16.70;86.20;;;;;;5072265;28;20075;-74
2023/03/08 08:39:01;;;;;;;18.27;3.67;;;16.60;86.20;;;;;;5072265;28;20083;-74
2023/03/08 08:41:28;;;;;;;17.27;3.95;;;16.60;86.10;;;;;;5072897;28;20036;-75
2023/03/08 08:43:57;;;;;;;15.52;3.80;;;16.60;86.20;;;;;;5072364;28;20040;-74
2023/03/08 08:46:23;;;;;;;15.27;4.88;;;16.80;86.20;;;;;;5087562;28;20075;-74
2023/03/08 08:48:49;;;;;;;19.42;4.90;;;16.90;85.80;;;;;;5088208;28;20029;-75
2023/03/08 08:51:15;;;;;;;21.02;4.35;;;17.00;85.70;;;;;;5072319;28;20040;-72
2023/03/08 08:53:42;;;;;;;17.65;4.80;;;17.10;86.20;;;;;;5072117;28;20108;-73
2023/03/08 08:56:20;;;;;;;15.90;4.50;;;17.20;85.20;;;;;;5072277;28;20055;-73
2023/03/08 08:58:47;;;;;;;16.20;3.92;;;17.30;84.80;;;;;;5072003;28;20035;-73
2023/03/08 09:01:17;;;;;;;26.02;4.18;;;17.40;84.70;;;;;;5073609;28;20089;-74
2023/03/08 09:03:44;;;;;;;16.38;5.00;;;17.50;84.40;;;;;;5075743;28;20396;-72
2023/03/08 09:06:10;;;;;;;17.27;4.00;;;17.60;84.00;;;;;;5057663;28;20044;-73
2023/03/08 09:08:36;;;;;;;16.38;4.68;;;17.60;83.80;;;;;;5075550;28;20028;-74
2023/03/08 09:11:04;;;;;;;19.95;4.53;;;17.70;83.90;;;;;;5075305;28;20033;-73
2023/03/08 09:13:30;;;;;;;25.08;5.70;;;17.60;83.90;;;;;;5077366;28;20031;-73
2023/03/08 09:15:56;;;;;;;18.00;4.68;;;17.50;84.10;;;;;;5059572;28;20036;-73
2023/03/08 09:18:22;;;;;;;19.17;4.25;;;17.50;84.30;;;;;;5075672;28;20503;-74
2023/03/08 09:20:48;;;;;;;17.08;4.30;;;17.60;84.20;;;;;;5075399;28;20028;-74
2023/03/08 09:23:13;;;;;;;20.45;4.40;;;17.60;84.00;;;;;;5075155;28;20041;-74
2023/03/08 09:25:39;;;;;;;16.20;4.00;;;17.50;84.00;;;;;;5075503;28;20107;-74
2023/03/08 09:28:05;;;;;;;21.05;4.13;;;17.50;83.90;;;;;;5075084;28;20495;-73
2023/03/08 09:30:31;;;;;;;16.35;3.78;;;17.50;83.90;;;;;;5075426;28;20392;-74
2023/03/08 09:32:58;;;;;;;20.50;3.75;;;17.50;83.70;;;;;;5075127;28;20055;-75
2023/03/08 09:35:24;;;;;;;16.38;3.92;;;17.50;83.70;;;;;;5075116;28;20024;-75
2023/03/08 09:37:49;;;;;;;20.90;4.10;;;17.60;83.80;;;;;;5075417;28;20411;-74
2023/03/08 09:40:22;;;;;;;16.73;4.95;;;17.70;83.50;;;;;;5075290;28;20029;-75
2023/03/08 09:42:48;;;;;;;12.23;3.27;;;17.90;83.10;;;;;;5056908;28;20407;-75
2023/03/08 09:45:25;;;;;;;14.77;4.32;;;18.00;82.70;;;;;;5075008;28;20259;-72
2023/03/08 09:47:55;;;;;;;18.83;3.78;;;18.10;82.30;;;;;;5075479;28;20134;-73
2023/03/08 09:50:52;;;;;;;14.30;3.90;;;18.20;82.10;;;;;;5075155;28;20039;-73
2023/03/08 09:53:34;;;;;;;13.10;3.47;;;18.30;81.50;;;;;;5074451;28;20039;-74
2023/03/08 09:56:03;;;;;;;18.17;4.38;;;18.20;81.40;;;;;;5074365;28;20039;-74
2023/03/08 09:58:40;;;;;;;17.35;4.63;;;18.20;81.40;;;;;;5074765;28;20099;-74
2023/03/08 10:01:22;;;;;;;14.25;4.20;;;18.20;81.40;;;;;;5074710;28;20048;-74
2023/03/08 10:04:18;;;;;;;17.35;4.47;;;18.20;81.40;;;;;;5074702;28;20044;-74
2023/03/08 10:07:17;;;;;;;14.10;4.10;;;18.30;81.40;;;;;;5056358;28;20051;-74
2023/03/08 10:09:52;;;;;;;15.05;3.83;;;18.30;81.20;;;;;;5061961;28;20036;-74
2023/03/08 10:12:51;;;;;;;16.20;4.35;;;18.20;81.30;;;;;;5074078;28;20076;-74
2023/03/08 10:15:21;;;;;;;12.88;4.40;;;18.00;81.20;;;;;;5074395;28;20042;-73
2023/03/08 10:17:55;;;;;;;15.40;4.10;;;17.90;81.60;;;;;;5073950;28;20056;-74
2023/03/08 10:20:36;;;;;;;16.70;4.03;;;17.90;81.60;;;;;;5073845;28;20040;-74
2023/03/08 10:23:24;;;;;;;12.02;4.10;;;17.90;81.60;;;;;;5056062;28;20435;-75
2023/03/08 10:25:50;;;;;;;15.57;4.40;;;17.80;81.40;;;;;;5074314;28;20468;-74
2023/03/08 10:28:21;;;;;;;16.27;5.40;;;17.70;81.40;;;;;;5056376;28;20047;-74
2023/03/08 10:30:49;;;;;;;19.40;4.38;;;17.80;81.30;;;;;;5073879;28;20025;-74
2023/03/08 10:33:18;;;;;;;18.10;4.70;;;17.90;81.40;;;;;;5074335;28;20029;-75
2023/03/08 10:36:04;;;;;;;14.50;4.00;;;18.00;81.10;;;;;;5056817;28;20044;-74
2023/03/08 10:38:33;;;;;;;15.93;4.65;;;18.20;80.90;;;;;;5074175;28;20040;-75
2023/03/08 10:41:00;;;;;;;18.58;5.20;;;18.30;80.20;;;;;;5055719;28;20041;-75
2023/03/08 10:43:31;;;;;;;20.45;4.45;;;18.40;80.20;;;;;;5073309;28;20059;-74
2023/03/08 10:46:05;;;;;;;17.25;4.18;;;18.40;79.90;;;;;;5074010;28;20055;-76
2023/03/08 10:48:31;;;;;;;19.90;4.45;;;18.40;79.90;;;;;;5076129;28;20040;-76
2023/03/08 10:50:59;;;;;;;16.13;4.78;;;18.50;79.60;;;;;;5055771;28;20028;-73
2023/03/08 10:53:28;;;;;;;13.35;4.10;;;18.60;79.40;;;;;;5073610;28;20043;-75
2023/03/08 10:55:54;;;;;;;15.57;3.83;;;18.70;79.00;;;;;;5073899;28;20052;-74
2023/03/08 10:58:31;;;;;;;17.88;3.58;;;18.80;78.50;;;;;;5055282;28;20094;-74
2023/03/08 11:00:59;;;;;;;10.80;3.50;;;18.90;78.40;;;;;;5073392;28;20052;-75
2023/03/08 11:03:26;;;;;;;17.88;3.38;;;18.90;77.80;;;;;;5055666;28;20037;-74
2023/03/08 11:05:59;;;;;;;14.82;3.80;;;19.00;77.50;;;;;;5073820;28;20025;-75
2023/03/08 11:08:29;;;;;;;14.30;3.53;;;19.10;77.10;;;;;;5073648;28;20496;-74
2023/03/08 11:11:08;;;;;;;13.98;3.10;;;19.10;76.90;;;;;;5073171;28;20039;-73
2023/03/08 11:13:37;;;;;;;11.68;3.22;;;19.10;77.40;;;;;;5073547;28;20040;-74
2023/03/08 11:16:22;;;;;;;21.23;3.28;;;19.10;76.60;;;;;;5073359;28;20024;-73
2023/03/08 11:19:05;;;;;;;11.45;3.13;;;19.10;77.10;;;;;;5073069;28;20033;-74
2023/03/08 11:21:58;;;;;;;12.10;2.50;;;19.20;75.90;;;;;;5073208;28;20127;-73
2023/03/08 11:24:33;;;;;;;10.95;3.15;;;19.30;76.30;;;;;;5072388;28;20042;-74
2023/03/08 11:27:04;;;;;;;11.77;3.20;;;19.20;75.70;;;;;;5073151;28;20381;-74
2023/03/08 11:30:00;;;;;;;11.75;2.58;;;19.30;74.50;;;;;;5072896;28;20452;-73
2023/03/08 11:32:44;;;;;;;13.00;3.25;;;19.20;74.60;;;;;;5072971;28;20082;-75
2023/03/08 11:35:16;;;;;;;;;;;19.10;72.60;;;;;;5075093;28;20036;-75
2023/03/08 11:38:06;;;;;;;11.48;2.47;;;19.20;70.60;;;;;;5072734;28;20386;-75
2023/03/08 11:40:38;;;;;;;10.30;2.40;;;19.30;72.70;;;;;;5072743;28;20049;-73
2023/03/08 13:00:04;;;;;;;6.75;2.78;;;19.90;70.00;;;;;;5052505;28;20060;-74
2023/03/08 13:02:33;;;;;;;7.80;2.50;;;19.80;69.90;;;;;;5013790;28;20133;-74
2023/03/08 13:05:23;;;;;;;10.40;2.78;;;19.70;69.80;;;;;;5015782;28;20037;-72
2023/03/08 13:08:13;;;;;;;12.32;2.58;;;19.60;70.60;;;;;;5016031;28;20044;-75
2023/03/08 13:10:51;;;;;;;9.43;2.75;;;19.50;70.60;;;;;;4997976;28;20049;-75
2023/03/08 13:13:20;;;;;;;9.98;2.45;;;19.50;70.80;;;;;;5015830;28;20041;-74
2023/03/08 13:15:45;;;;;;;11.32;2.40;;;19.40;70.40;;;;;;5015534;28;20030;-73
2023/03/08 13:18:16;;;;;;;8.32;2.40;;;19.40;70.20;;;;;;5015912;28;20089;-73
2023/03/08 13:20:56;;;;;;;11.45;2.38;;;19.40;70.20;;;;;;5015902;28;20030;-73
2023/03/08 13:23:37;;;;;;;8.00;2.28;;;19.30;70.20;;;;;;5016961;28;20042;-73
2023/03/08 13:26:13;;;;;;;8.75;2.58;;;19.40;70.60;;;;;;5015661;28;20054;-74
2023/03/08 13:28:41;;;;;;;13.65;3.03;;;19.30;70.30;;;;;;5015779;28;20501;-74
2023/03/08 13:31:16;;;;;;;10.77;2.22;;;19.30;69.90;;;;;;5015856;28;20038;-73
2023/03/08 13:33:53;;;;;;;11.90;3.17;;;19.30;70.20;;;;;;5015674;28;20382;-74
2023/03/08 13:36:27;;;;;;;7.63;2.20;;;19.30;70.20;;;;;;5017352;28;20033;-76
2023/03/08 13:39:18;;;;;;;10.02;2.50;;;19.30;70.50;;;;;;5017669;28;20042;-75
2023/03/08 13:41:45;;;;;;;7.40;2.05;;;19.30;70.80;;;;;;5015211;28;20040;-74
2023/03/08 13:44:14;;;;;;;6.53;1.80;;;19.20;70.20;;;;;;5015091;28;20036;-73
2023/03/08 13:46:41;;;;;;;7.15;2.22;;;19.30;70.30;;;;;;5014840;28;20034;-75
2023/03/08 13:49:34;;;;;;;7.65;2.20;;;19.40;70.10;;;;;;4997755;28;20037;-75
2023/03/08 13:52:03;;;;;;;9.20;2.40;;;19.40;70.20;;;;;;5007871;28;20037;-74
2023/03/08 13:54:40;;;;;;;8.38;2.58;;;19.50;70.10;;;;;;5015359;28;20089;-73
2023/03/08 13:57:18;;;;;;;9.55;3.08;;;19.60;70.20;;;;;;5015882;28;20049;-74
2023/03/08 13:59:49;;;;;;;7.88;2.33;;;19.60;69.90;;;;;;5015113;28;20537;-75
2023/03/08 14:02:24;;;;;;;12.75;3.05;;;19.60;69.80;;;;;;5033176;28;20038;-74
2023/03/08 14:04:51;;;;;;;13.18;3.35;;;19.60;70.00;;;;;;5034794;28;20033;-74